CFG2RX EDDF-EDDM
Flight info
| Callsign | CFG2RX |
|---|---|
| Flight time | 0h 34m |
| Altitude | 23000 |
| Route | CINDY8S CINDY Z74 HAREM T104 ROKIL ROKIL1B |
| Aircraft | A20N/M-SBDE3FGHIJ1J4J7LORVWXYZ/SB2D1G1 |
Departure
| Time | 2026-05-06 04:29 |
|---|---|
| Airport | Frankfurt Main Airport (EDDF) |
Arrival
| Time | 2026-05-06 05:03 |
|---|---|
| Airport | Munich Airport (EDDM) |
| Time | Latitude | Longitude | Altitude | Speed | Heading |
|---|---|---|---|---|---|
| 2026-05-06 03:53 | 50.04872 | 8.58975 | 371 ft | 0 kts | 341° |
| 2026-05-06 04:17 | 50.04863 | 8.58980 | 371 ft | 2 kts | 339° |
| 2026-05-06 04:17 | 50.04849 | 8.58988 | 371 ft | 2 kts | 340° |
| 2026-05-06 04:18 | 50.04835 | 8.58996 | 371 ft | 2 kts | 339° |
| 2026-05-06 04:18 | 50.04821 | 8.59005 | 371 ft | 2 kts | 340° |
| 2026-05-06 04:18 | 50.04807 | 8.59013 | 371 ft | 2 kts | 339° |
| 2026-05-06 04:18 | 50.04792 | 8.59021 | 371 ft | 1 kts | 340° |
| 2026-05-06 04:19 | 50.04791 | 8.59022 | 371 ft | 0 kts | 340° |
| 2026-05-06 04:20 | 50.04793 | 8.59018 | 371 ft | 0 kts | 301° |
| 2026-05-06 04:21 | 50.04773 | 8.58953 | 371 ft | 12 kts | 243° |
| 2026-05-06 04:21 | 50.04740 | 8.58822 | 370 ft | 13 kts | 252° |
| 2026-05-06 04:21 | 50.04699 | 8.58667 | 370 ft | 16 kts | 246° |
| 2026-05-06 04:21 | 50.04657 | 8.58495 | 369 ft | 17 kts | 250° |
| 2026-05-06 04:22 | 50.04613 | 8.58313 | 368 ft | 18 kts | 249° |
| 2026-05-06 04:22 | 50.04567 | 8.58121 | 366 ft | 19 kts | 250° |
| 2026-05-06 04:22 | 50.04518 | 8.57917 | 365 ft | 20 kts | 250° |
| 2026-05-06 04:23 | 50.04525 | 8.57538 | 362 ft | 19 kts | 338° |
| 2026-05-06 04:23 | 50.04589 | 8.57399 | 362 ft | 18 kts | 250° |
| 2026-05-06 04:23 | 50.04541 | 8.57203 | 360 ft | 20 kts | 249° |
| 2026-05-06 04:23 | 50.04491 | 8.56994 | 358 ft | 20 kts | 250° |
| 2026-05-06 04:24 | 50.04442 | 8.56784 | 357 ft | 20 kts | 250° |
| 2026-05-06 04:24 | 50.04390 | 8.56570 | 356 ft | 21 kts | 250° |
| 2026-05-06 04:24 | 50.04340 | 8.56356 | 354 ft | 21 kts | 250° |
| 2026-05-06 04:24 | 50.04287 | 8.56137 | 353 ft | 22 kts | 250° |
| 2026-05-06 04:25 | 50.04232 | 8.55904 | 352 ft | 23 kts | 249° |
| 2026-05-06 04:25 | 50.04176 | 8.55671 | 351 ft | 22 kts | 249° |
| 2026-05-06 04:25 | 50.04120 | 8.55441 | 350 ft | 22 kts | 250° |
| 2026-05-06 04:25 | 50.04066 | 8.55215 | 349 ft | 22 kts | 249° |
| 2026-05-06 04:26 | 50.04012 | 8.54983 | 347 ft | 22 kts | 249° |
| 2026-05-06 04:26 | 50.03955 | 8.54751 | 347 ft | 23 kts | 249° |
| 2026-05-06 04:26 | 50.03898 | 8.54513 | 345 ft | 23 kts | 250° |
| 2026-05-06 04:26 | 50.03820 | 8.54280 | 344 ft | 25 kts | 239° |
| 2026-05-06 04:27 | 50.03751 | 8.54016 | 342 ft | 27 kts | 249° |
| 2026-05-06 04:27 | 50.03684 | 8.53735 | 341 ft | 27 kts | 250° |
| 2026-05-06 04:27 | 50.03617 | 8.53465 | 340 ft | 26 kts | 250° |
| 2026-05-06 04:27 | 50.03552 | 8.53198 | 338 ft | 25 kts | 250° |
| 2026-05-06 04:28 | 50.03491 | 8.52944 | 337 ft | 24 kts | 249° |
| 2026-05-06 04:28 | 50.03428 | 8.52704 | 336 ft | 22 kts | 249° |
| 2026-05-06 04:28 | 50.03295 | 8.52593 | 335 ft | 31 kts | 180° |
| 2026-05-06 04:28 | 50.02828 | 8.52596 | 334 ft | 104 kts | 180° |
| 2026-05-06 04:29 | 50.01883 | 8.52613 | 366 ft | 160 kts | 180° |
| 2026-05-06 04:29 | 50.00832 | 8.52630 | 1163 ft | 149 kts | 182° |
| 2026-05-06 04:29 | 49.99782 | 8.52631 | 1802 ft | 155 kts | 184° |
| 2026-05-06 04:29 | 49.98671 | 8.52623 | 2280 ft | 170 kts | 184° |
| 2026-05-06 04:30 | 49.97435 | 8.52681 | 2758 ft | 189 kts | 174° |
| 2026-05-06 04:30 | 49.96222 | 8.53752 | 3212 ft | 218 kts | 135° |
| 2026-05-06 04:30 | 49.95406 | 8.55837 | 3718 ft | 238 kts | 122° |
| 2026-05-06 04:30 | 49.94598 | 8.58188 | 4358 ft | 252 kts | 119° |
| 2026-05-06 04:31 | 49.94043 | 8.60717 | 5315 ft | 254 kts | 103° |
| 2026-05-06 04:31 | 49.93850 | 8.63503 | 5976 ft | 269 kts | 95° |
| 2026-05-06 04:31 | 49.93759 | 8.66499 | 6540 ft | 287 kts | 95° |
| 2026-05-06 04:31 | 49.93324 | 8.69477 | 7256 ft | 291 kts | 122° |
| 2026-05-06 04:32 | 49.91981 | 8.71724 | 8203 ft | 283 kts | 149° |
| 2026-05-06 04:32 | 49.90345 | 8.73419 | 9107 ft | 285 kts | 150° |
| 2026-05-06 04:32 | 49.88805 | 8.75357 | 9950 ft | 293 kts | 138° |
| 2026-05-06 04:32 | 49.87529 | 8.77873 | 10602 ft | 309 kts | 126° |
| 2026-05-06 04:33 | 49.86409 | 8.80848 | 11049 ft | 327 kts | 122° |
| 2026-05-06 04:33 | 49.85294 | 8.83981 | 11454 ft | 345 kts | 122° |
| 2026-05-06 04:33 | 49.84116 | 8.87302 | 12078 ft | 354 kts | 122° |
| 2026-05-06 04:33 | 49.82925 | 8.90631 | 12878 ft | 357 kts | 122° |
| 2026-05-06 04:34 | 49.81719 | 8.93982 | 13679 ft | 360 kts | 122° |
| 2026-05-06 04:34 | 49.80457 | 8.97337 | 14437 ft | 362 kts | 125° |
| 2026-05-06 04:34 | 49.79096 | 9.00590 | 15157 ft | 365 kts | 126° |
| 2026-05-06 04:34 | 49.77700 | 9.03850 | 15858 ft | 369 kts | 126° |
| 2026-05-06 04:35 | 49.76272 | 9.07199 | 16544 ft | 373 kts | 126° |
| 2026-05-06 04:35 | 49.74860 | 9.10531 | 17197 ft | 377 kts | 126° |
| 2026-05-06 04:35 | 49.73424 | 9.13936 | 17843 ft | 381 kts | 126° |
| 2026-05-06 04:35 | 49.71972 | 9.17386 | 18477 ft | 385 kts | 126° |
| 2026-05-06 04:36 | 49.70513 | 9.20857 | 19117 ft | 388 kts | 126° |
| 2026-05-06 04:36 | 49.69034 | 9.24372 | 19763 ft | 392 kts | 126° |
| 2026-05-06 04:36 | 49.67543 | 9.27912 | 20398 ft | 395 kts | 126° |
| 2026-05-06 04:36 | 49.66059 | 9.31427 | 21003 ft | 398 kts | 126° |
| 2026-05-06 04:37 | 49.64547 | 9.35003 | 21602 ft | 402 kts | 126° |
| 2026-05-06 04:37 | 49.63003 | 9.38619 | 22089 ft | 404 kts | 127° |
| 2026-05-06 04:37 | 49.61338 | 9.42128 | 22434 ft | 405 kts | 131° |
| 2026-05-06 04:37 | 49.59545 | 9.45444 | 22732 ft | 405 kts | 134° |
| 2026-05-06 04:38 | 49.57684 | 9.48713 | 22768 ft | 405 kts | 134° |
| 2026-05-06 04:38 | 49.55844 | 9.51934 | 22769 ft | 405 kts | 134° |
| 2026-05-06 04:38 | 49.53983 | 9.55191 | 22772 ft | 406 kts | 134° |
| 2026-05-06 04:38 | 49.52105 | 9.58475 | 22777 ft | 406 kts | 134° |
| 2026-05-06 04:39 | 49.50257 | 9.61705 | 22780 ft | 406 kts | 134° |
| 2026-05-06 04:39 | 49.48387 | 9.64973 | 22777 ft | 406 kts | 134° |
| 2026-05-06 04:39 | 49.46533 | 9.68212 | 22779 ft | 405 kts | 135° |
| 2026-05-06 04:39 | 49.44669 | 9.71463 | 22781 ft | 405 kts | 135° |
| 2026-05-06 04:40 | 49.42801 | 9.74714 | 22784 ft | 406 kts | 135° |
| 2026-05-06 04:40 | 49.40950 | 9.77934 | 22786 ft | 406 kts | 135° |
| 2026-05-06 04:40 | 49.39080 | 9.81181 | 22788 ft | 406 kts | 135° |
| 2026-05-06 04:40 | 49.37194 | 9.84446 | 22786 ft | 407 kts | 135° |
| 2026-05-06 04:41 | 49.35336 | 9.87655 | 22792 ft | 407 kts | 135° |
| 2026-05-06 04:41 | 49.33459 | 9.90890 | 22792 ft | 407 kts | 135° |
| 2026-05-06 04:41 | 49.31580 | 9.94128 | 22789 ft | 407 kts | 135° |
| 2026-05-06 04:41 | 49.29693 | 9.97377 | 22788 ft | 407 kts | 135° |
| 2026-05-06 04:42 | 49.27813 | 10.00612 | 22787 ft | 407 kts | 135° |
| 2026-05-06 04:42 | 49.25941 | 10.03828 | 22790 ft | 408 kts | 135° |
| 2026-05-06 04:42 | 49.24062 | 10.07052 | 22785 ft | 408 kts | 135° |
| 2026-05-06 04:42 | 49.22175 | 10.10287 | 22790 ft | 408 kts | 135° |
| 2026-05-06 04:43 | 49.20277 | 10.13534 | 22788 ft | 407 kts | 135° |
| 2026-05-06 04:43 | 49.18401 | 10.16741 | 22781 ft | 407 kts | 135° |
| 2026-05-06 04:43 | 49.16517 | 10.19962 | 22786 ft | 407 kts | 135° |
| 2026-05-06 04:43 | 49.14651 | 10.23147 | 22788 ft | 407 kts | 135° |
| 2026-05-06 04:44 | 49.12722 | 10.26358 | 22784 ft | 407 kts | 136° |
| 2026-05-06 04:44 | 49.10779 | 10.29479 | 22784 ft | 406 kts | 137° |
| 2026-05-06 04:44 | 49.08827 | 10.32598 | 22783 ft | 407 kts | 137° |
| 2026-05-06 04:44 | 49.06889 | 10.35698 | 22785 ft | 407 kts | 137° |
| 2026-05-06 04:45 | 49.04933 | 10.38833 | 22784 ft | 407 kts | 137° |
| 2026-05-06 04:45 | 49.03011 | 10.41915 | 22787 ft | 407 kts | 137° |
| 2026-05-06 04:45 | 49.01036 | 10.45077 | 22787 ft | 408 kts | 137° |
| 2026-05-06 04:45 | 48.99091 | 10.48188 | 22789 ft | 408 kts | 137° |
| 2026-05-06 04:46 | 48.97144 | 10.51291 | 22794 ft | 407 kts | 137° |
| 2026-05-06 04:46 | 48.95186 | 10.54411 | 22787 ft | 408 kts | 137° |
| 2026-05-06 04:46 | 48.93254 | 10.57483 | 22788 ft | 407 kts | 137° |
| 2026-05-06 04:46 | 48.91304 | 10.60587 | 22792 ft | 407 kts | 137° |
| 2026-05-06 04:47 | 48.89341 | 10.63702 | 22441 ft | 409 kts | 137° |
| 2026-05-06 04:47 | 48.87389 | 10.66796 | 21818 ft | 408 kts | 138° |
| 2026-05-06 04:47 | 48.85432 | 10.69896 | 21266 ft | 405 kts | 137° |
| 2026-05-06 04:47 | 48.83483 | 10.72980 | 20746 ft | 402 kts | 137° |
| 2026-05-06 04:48 | 48.81558 | 10.76026 | 20242 ft | 398 kts | 137° |
| 2026-05-06 04:48 | 48.79649 | 10.79037 | 19754 ft | 394 kts | 137° |
| 2026-05-06 04:48 | 48.77780 | 10.81974 | 19277 ft | 390 kts | 137° |
| 2026-05-06 04:48 | 48.75880 | 10.84952 | 18802 ft | 387 kts | 137° |
| 2026-05-06 04:49 | 48.74039 | 10.87836 | 18335 ft | 383 kts | 137° |
| 2026-05-06 04:49 | 48.72202 | 10.90710 | 17870 ft | 380 kts | 137° |
| 2026-05-06 04:49 | 48.70480 | 10.93714 | 17392 ft | 380 kts | 128° |
| 2026-05-06 04:49 | 48.69150 | 10.97162 | 16928 ft | 381 kts | 117° |
| 2026-05-06 04:50 | 48.68234 | 11.00905 | 16481 ft | 380 kts | 110° |
| 2026-05-06 04:50 | 48.67448 | 11.04731 | 16013 ft | 377 kts | 109° |
| 2026-05-06 04:50 | 48.66692 | 11.08501 | 15548 ft | 374 kts | 109° |
| 2026-05-06 04:50 | 48.65937 | 11.12246 | 15085 ft | 371 kts | 109° |
| 2026-05-06 04:51 | 48.65187 | 11.15930 | 14628 ft | 369 kts | 109° |
| 2026-05-06 04:51 | 48.64436 | 11.19591 | 14151 ft | 366 kts | 109° |
| 2026-05-06 04:51 | 48.63672 | 11.23293 | 13588 ft | 367 kts | 109° |
| 2026-05-06 04:51 | 48.62916 | 11.26940 | 12993 ft | 368 kts | 109° |
| 2026-05-06 04:52 | 48.62147 | 11.30635 | 12372 ft | 369 kts | 110° |
| 2026-05-06 04:52 | 48.61381 | 11.34310 | 11744 ft | 369 kts | 110° |
| 2026-05-06 04:52 | 48.60614 | 11.37979 | 11105 ft | 369 kts | 109° |
| 2026-05-06 04:52 | 48.59847 | 11.41640 | 10629 ft | 364 kts | 109° |
| 2026-05-06 04:53 | 48.59100 | 11.45212 | 10535 ft | 347 kts | 109° |
| 2026-05-06 04:53 | 48.58391 | 11.48605 | 10455 ft | 332 kts | 110° |
| 2026-05-06 04:53 | 48.57709 | 11.51861 | 10374 ft | 317 kts | 110° |
| 2026-05-06 04:53 | 48.57062 | 11.54935 | 10283 ft | 303 kts | 110° |
| 2026-05-06 04:54 | 48.56434 | 11.57915 | 10157 ft | 292 kts | 110° |
| 2026-05-06 04:54 | 48.55818 | 11.60819 | 9826 ft | 289 kts | 110° |
| 2026-05-06 04:54 | 48.55212 | 11.63668 | 9460 ft | 287 kts | 110° |
| 2026-05-06 04:54 | 48.54604 | 11.66531 | 9083 ft | 286 kts | 110° |
| 2026-05-06 04:55 | 48.54000 | 11.69365 | 8716 ft | 285 kts | 110° |
| 2026-05-06 04:55 | 48.53394 | 11.72213 | 8355 ft | 283 kts | 110° |
| 2026-05-06 04:55 | 48.52798 | 11.75015 | 7957 ft | 283 kts | 110° |
| 2026-05-06 04:55 | 48.52192 | 11.77857 | 7556 ft | 282 kts | 110° |
| 2026-05-06 04:56 | 48.51599 | 11.80637 | 7176 ft | 281 kts | 110° |
| 2026-05-06 04:56 | 48.51000 | 11.83443 | 6832 ft | 279 kts | 110° |
| 2026-05-06 04:56 | 48.50405 | 11.86227 | 6490 ft | 277 kts | 109° |
| 2026-05-06 04:56 | 48.49817 | 11.88969 | 6132 ft | 275 kts | 109° |
| 2026-05-06 04:57 | 48.49228 | 11.91693 | 5771 ft | 273 kts | 109° |
| 2026-05-06 04:57 | 48.48638 | 11.94371 | 5409 ft | 272 kts | 109° |
| 2026-05-06 04:57 | 48.48033 | 11.97060 | 5174 ft | 265 kts | 109° |
| 2026-05-06 04:57 | 48.47452 | 11.99619 | 5008 ft | 256 kts | 109° |
| 2026-05-06 04:58 | 48.46875 | 12.02127 | 4840 ft | 247 kts | 110° |
| 2026-05-06 04:58 | 48.46102 | 12.04340 | 4656 ft | 240 kts | 133° |
| 2026-05-06 04:58 | 48.44725 | 12.05659 | 4483 ft | 232 kts | 166° |
| 2026-05-06 04:58 | 48.43164 | 12.05869 | 4335 ft | 224 kts | 181° |
| 2026-05-06 04:59 | 48.41626 | 12.05763 | 4183 ft | 216 kts | 184° |
| 2026-05-06 04:59 | 48.40210 | 12.05233 | 4010 ft | 208 kts | 212° |
| 2026-05-06 04:59 | 48.39173 | 12.03872 | 4052 ft | 194 kts | 231° |
| 2026-05-06 04:59 | 48.38483 | 12.02138 | 3999 ft | 191 kts | 248° |
| 2026-05-06 05:00 | 48.38105 | 12.00237 | 3826 ft | 190 kts | 259° |
| 2026-05-06 05:00 | 48.37913 | 11.98285 | 3578 ft | 190 kts | 265° |
| 2026-05-06 05:00 | 48.37785 | 11.96317 | 3323 ft | 186 kts | 265° |
| 2026-05-06 05:00 | 48.37655 | 11.94428 | 3078 ft | 176 kts | 265° |
| 2026-05-06 05:01 | 48.37519 | 11.92667 | 2860 ft | 165 kts | 264° |
| 2026-05-06 05:01 | 48.37386 | 11.91004 | 2630 ft | 154 kts | 264° |
| 2026-05-06 05:01 | 48.37262 | 11.89450 | 2426 ft | 150 kts | 264° |
| 2026-05-06 05:01 | 48.37138 | 11.87882 | 2237 ft | 150 kts | 264° |
| 2026-05-06 05:02 | 48.37018 | 11.86332 | 2038 ft | 150 kts | 264° |
| 2026-05-06 05:02 | 48.36904 | 11.84770 | 1829 ft | 149 kts | 263° |
| 2026-05-06 05:02 | 48.36778 | 11.83221 | 1622 ft | 149 kts | 262° |
| 2026-05-06 05:02 | 48.36656 | 11.81694 | 1465 ft | 146 kts | 263° |
| 2026-05-06 05:03 | 48.36549 | 11.80303 | 1460 ft | 117 kts | 263° |
| 2026-05-06 05:03 | 48.36477 | 11.79373 | 1464 ft | 63 kts | 263° |
| 2026-05-06 05:03 | 48.36407 | 11.78937 | 1467 ft | 35 kts | 242° |
| 2026-05-06 05:03 | 48.36297 | 11.78693 | 1469 ft | 23 kts | 232° |
| 2026-05-06 05:04 | 48.36206 | 11.78515 | 1470 ft | 20 kts | 233° |
| 2026-05-06 05:04 | 48.36131 | 11.78345 | 1471 ft | 18 kts | 250° |
| 2026-05-06 05:04 | 48.36113 | 11.78154 | 1471 ft | 18 kts | 262° |
| 2026-05-06 05:04 | 48.36098 | 11.77964 | 1472 ft | 18 kts | 263° |
| 2026-05-06 05:05 | 48.36083 | 11.77778 | 1472 ft | 17 kts | 263° |
| 2026-05-06 05:05 | 48.36031 | 11.77663 | 1473 ft | 13 kts | 177° |
| 2026-05-06 05:05 | 48.35941 | 11.77678 | 1473 ft | 13 kts | 173° |
| 2026-05-06 05:05 | 48.35849 | 11.77696 | 1474 ft | 13 kts | 172° |
| 2026-05-06 05:06 | 48.35760 | 11.77737 | 1475 ft | 12 kts | 155° |
| 2026-05-06 05:06 | 48.35675 | 11.77762 | 1475 ft | 12 kts | 174° |
| 2026-05-06 05:06 | 48.35589 | 11.77776 | 1476 ft | 12 kts | 173° |
| 2026-05-06 05:06 | 48.35501 | 11.77793 | 1477 ft | 12 kts | 172° |
| 2026-05-06 05:07 | 48.35417 | 11.77807 | 1478 ft | 11 kts | 174° |
| 2026-05-06 05:07 | 48.35338 | 11.77820 | 1478 ft | 11 kts | 174° |
| 2026-05-06 05:07 | 48.35265 | 11.77832 | 1479 ft | 10 kts | 174° |
| 2026-05-06 05:07 | 48.35197 | 11.77854 | 1479 ft | 9 kts | 141° |
| 2026-05-06 05:08 | 48.35186 | 11.77944 | 1479 ft | 9 kts | 83° |
| 2026-05-06 05:08 | 48.35193 | 11.78036 | 1479 ft | 8 kts | 84° |
| 2026-05-06 05:08 | 48.35197 | 11.78088 | 1479 ft | 0 kts | 83° |
| 2026-05-06 05:08 | 48.35197 | 11.78092 | 1479 ft | 0 kts | 84° |
| 2026-05-06 05:09 | 48.35198 | 11.78092 | 1479 ft | 0 kts | 84° |
| 2026-05-06 05:09 | 48.35198 | 11.78093 | 1479 ft | 1 kts | 84° |
| 2026-05-06 05:09 | 48.35195 | 11.78147 | 1479 ft | 8 kts | 111° |
| 2026-05-06 05:09 | 48.35140 | 11.78197 | 1479 ft | 10 kts | 171° |
| 2026-05-06 05:10 | 48.35081 | 11.78225 | 1479 ft | 5 kts | 117° |
| 2026-05-06 05:10 | 48.35083 | 11.78296 | 1479 ft | 7 kts | 84° |
| 2026-05-06 05:10 | 48.35087 | 11.78351 | 1479 ft | 3 kts | 84° |
| 2026-05-06 05:10 | 48.35088 | 11.78356 | 1479 ft | 0 kts | 84° |